Terminal Aerodrome Forecast
Issued by NWS Upton, NY

Home | Current Version | Previous Version | Text Only | Print | Product List | Glossary On
Versions: 1 2 3 4 5 6 7 8 9 10 11 12 13 14 15 16 17 18 19 20 21 22 23 24 25 26 27
000
FTUS41 KOKX 291100 RRA
TAFJFK
TAF
KJFK 291150Z 2912/3018 36007KT P6SM SKC
     FM291400 VRB05KT P6SM SKC
     FM291700 12006KT P6SM BKN150
     FM292000 15006KT P6SM SCT030 BKN100
     FM300300 20010KT 4SM -SN SCT025 OVC050
     FM300500 21010KT 2SM -SN OVC015
     FM301000 24009KT 2SM -SN OVC015
     FM301200 28011KT 4SM -SN OVC015
     FM301500 30015G23KT 6SM -SN SCT020 OVC040=

USA.gov is the U.S. government's official web portal to all federal, state and local government web resources and services.